sensor_id;sensor_type;location;lat;lon;timestamp;P1;durP1;ratioP1;P2;durP2;ratioP2
15946;SDS011;8072;52.554;7.966;2023-08-31T00:00:50;7.37;;;3.80;;
15946;SDS011;8072;52.554;7.966;2023-08-31T00:03:18;5.50;;;3.33;;
15946;SDS011;8072;52.554;7.966;2023-08-31T00:05:44;7.40;;;3.10;;
15946;SDS011;8072;52.554;7.966;2023-08-31T00:08:10;5.13;;;2.93;;
15946;SDS011;8072;52.554;7.966;2023-08-31T00:10:39;8.37;;;3.37;;
15946;SDS011;8072;52.554;7.966;2023-08-31T00:13:05;6.57;;;3.50;;
15946;SDS011;8072;52.554;7.966;2023-08-31T00:15:34;7.87;;;3.60;;
15946;SDS011;8072;52.554;7.966;2023-08-31T00:18:01;7.00;;;3.80;;
15946;SDS011;8072;52.554;7.966;2023-08-31T00:20:29;6.17;;;3.50;;
15946;SDS011;8072;52.554;7.966;2023-08-31T00:22:55;9.57;;;3.40;;
15946;SDS011;8072;52.554;7.966;2023-08-31T00:25:22;5.37;;;3.30;;
15946;SDS011;8072;52.554;7.966;2023-08-31T00:27:47;5.47;;;3.70;;
15946;SDS011;8072;52.554;7.966;2023-08-31T00:30:13;9.70;;;3.70;;
15946;SDS011;8072;52.554;7.966;2023-08-31T00:32:40;4.23;;;3.13;;
15946;SDS011;8072;52.554;7.966;2023-08-31T00:35:08;7.17;;;3.67;;
15946;SDS011;8072;52.554;7.966;2023-08-31T00:37:34;6.17;;;3.87;;
15946;SDS011;8072;52.554;7.966;2023-08-31T00:40:00;5.27;;;3.90;;
15946;SDS011;8072;52.554;7.966;2023-08-31T00:42:26;10.00;;;3.63;;
15946;SDS011;8072;52.554;7.966;2023-08-31T00:44:54;12.73;;;4.50;;
15946;SDS011;8072;52.554;7.966;2023-08-31T00:47:20;6.93;;;4.10;;
15946;SDS011;8072;52.554;7.966;2023-08-31T00:49:46;6.50;;;3.53;;
15946;SDS011;8072;52.554;7.966;2023-08-31T00:52:13;8.87;;;3.87;;
15946;SDS011;8072;52.554;7.966;2023-08-31T00:54:39;7.87;;;4.73;;
15946;SDS011;8072;52.554;7.966;2023-08-31T00:57:07;7.00;;;4.10;;
15946;SDS011;8072;52.554;7.966;2023-08-31T00:59:33;11.53;;;4.27;;
15946;SDS011;8072;52.554;7.966;2023-08-31T01:02:15;6.33;;;4.20;;
15946;SDS011;8072;52.554;7.966;2023-08-31T01:12:54;8.87;;;4.30;;
15946;SDS011;8072;52.554;7.966;2023-08-31T01:15:27;11.80;;;4.57;;
15946;SDS011;8072;52.554;7.966;2023-08-31T01:17:57;9.57;;;4.40;;
15946;SDS011;8072;52.554;7.966;2023-08-31T01:20:28;8.17;;;4.00;;
15946;SDS011;8072;52.554;7.966;2023-08-31T01:23:02;8.73;;;4.33;;
15946;SDS011;8072;52.554;7.966;2023-08-31T01:25:32;7.30;;;4.30;;
15946;SDS011;8072;52.554;7.966;2023-08-31T01:27:58;7.73;;;4.10;;
15946;SDS011;8072;52.554;7.966;2023-08-31T01:30:25;8.67;;;4.33;;
15946;SDS011;8072;52.554;7.966;2023-08-31T01:32:54;7.83;;;4.03;;
15946;SDS011;8072;52.554;7.966;2023-08-31T01:35:20;7.10;;;3.90;;
15946;SDS011;8072;52.554;7.966;2023-08-31T01:37:54;8.80;;;3.93;;
15946;SDS011;8072;52.554;7.966;2023-08-31T01:40:46;9.27;;;3.93;;
15946;SDS011;8072;52.554;7.966;2023-08-31T01:43:19;7.20;;;4.00;;
15946;SDS011;8072;52.554;7.966;2023-08-31T01:45:47;6.50;;;3.70;;
15946;SDS011;8072;52.554;7.966;2023-08-31T01:48:13;8.50;;;3.93;;
15946;SDS011;8072;52.554;7.966;2023-08-31T01:50:40;11.40;;;4.60;;
15946;SDS011;8072;52.554;7.966;2023-08-31T01:53:06;9.03;;;4.47;;
15946;SDS011;8072;52.554;7.966;2023-08-31T01:55:35;8.77;;;4.70;;
15946;SDS011;8072;52.554;7.966;2023-08-31T01:58:01;12.67;;;4.70;;
15946;SDS011;8072;52.554;7.966;2023-08-31T02:00:27;8.30;;;4.13;;
15946;SDS011;8072;52.554;7.966;2023-08-31T02:02:53;9.27;;;4.50;;
15946;SDS011;8072;52.554;7.966;2023-08-31T02:05:19;7.27;;;4.10;;
15946;SDS011;8072;52.554;7.966;2023-08-31T02:07:44;8.63;;;3.93;;
15946;SDS011;8072;52.554;7.966;2023-08-31T02:10:10;8.90;;;4.10;;
15946;SDS011;8072;52.554;7.966;2023-08-31T02:12:36;9.10;;;4.20;;
15946;SDS011;8072;52.554;7.966;2023-08-31T02:15:05;7.40;;;4.40;;
15946;SDS011;8072;52.554;7.966;2023-08-31T02:17:32;10.30;;;4.30;;
15946;SDS011;8072;52.554;7.966;2023-08-31T02:20:00;7.83;;;4.47;;
15946;SDS011;8072;52.554;7.966;2023-08-31T02:22:29;8.93;;;4.43;;
15946;SDS011;8072;52.554;7.966;2023-08-31T02:24:56;6.97;;;4.50;;
15946;SDS011;8072;52.554;7.966;2023-08-31T02:27:22;8.63;;;4.30;;
15946;SDS011;8072;52.554;7.966;2023-08-31T02:29:49;9.13;;;4.70;;
15946;SDS011;8072;52.554;7.966;2023-08-31T02:32:15;12.57;;;5.27;;
15946;SDS011;8072;52.554;7.966;2023-08-31T02:34:40;8.43;;;4.30;;
15946;SDS011;8072;52.554;7.966;2023-08-31T02:37:06;7.87;;;4.67;;
15946;SDS011;8072;52.554;7.966;2023-08-31T02:39:32;6.63;;;4.43;;
15946;SDS011;8072;52.554;7.966;2023-08-31T02:41:57;8.20;;;4.53;;
15946;SDS011;8072;52.554;7.966;2023-08-31T02:44:24;10.63;;;5.10;;
15946;SDS011;8072;52.554;7.966;2023-08-31T02:46:49;7.83;;;4.53;;
15946;SDS011;8072;52.554;7.966;2023-08-31T02:49:15;7.93;;;4.37;;
15946;SDS011;8072;52.554;7.966;2023-08-31T02:51:41;8.10;;;4.73;;
15946;SDS011;8072;52.554;7.966;2023-08-31T02:54:07;10.00;;;5.07;;
15946;SDS011;8072;52.554;7.966;2023-08-31T02:56:32;7.57;;;4.60;;
15946;SDS011;8072;52.554;7.966;2023-08-31T02:58:58;8.60;;;4.90;;
15946;SDS011;8072;52.554;7.966;2023-08-31T03:01:24;9.00;;;4.70;;
15946;SDS011;8072;52.554;7.966;2023-08-31T03:03:50;10.40;;;4.77;;
15946;SDS011;8072;52.554;7.966;2023-08-31T03:06:16;9.63;;;4.60;;
15946;SDS011;8072;52.554;7.966;2023-08-31T03:08:43;8.97;;;4.97;;
15946;SDS011;8072;52.554;7.966;2023-08-31T03:11:09;8.47;;;4.63;;
15946;SDS011;8072;52.554;7.966;2023-08-31T03:13:35;8.07;;;4.73;;
15946;SDS011;8072;52.554;7.966;2023-08-31T03:16:03;7.17;;;4.97;;
15946;SDS011;8072;52.554;7.966;2023-08-31T03:18:29;7.67;;;5.07;;
15946;SDS011;8072;52.554;7.966;2023-08-31T03:20:54;9.30;;;5.37;;
15946;SDS011;8072;52.554;7.966;2023-08-31T03:23:21;9.23;;;5.00;;
15946;SDS011;8072;52.554;7.966;2023-08-31T03:25:47;9.27;;;5.40;;
15946;SDS011;8072;52.554;7.966;2023-08-31T03:28:13;8.27;;;5.40;;
15946;SDS011;8072;52.554;7.966;2023-08-31T03:30:40;11.20;;;5.73;;
15946;SDS011;8072;52.554;7.966;2023-08-31T03:33:05;8.30;;;5.50;;
15946;SDS011;8072;52.554;7.966;2023-08-31T03:35:32;10.53;;;5.93;;
15946;SDS011;8072;52.554;7.966;2023-08-31T03:37:58;10.47;;;5.87;;
15946;SDS011;8072;52.554;7.966;2023-08-31T03:40:27;8.43;;;5.83;;
15946;SDS011;8072;52.554;7.966;2023-08-31T03:42:53;11.10;;;6.73;;
15946;SDS011;8072;52.554;7.966;2023-08-31T03:45:19;9.77;;;6.03;;
15946;SDS011;8072;52.554;7.966;2023-08-31T03:47:45;10.23;;;5.80;;
15946;SDS011;8072;52.554;7.966;2023-08-31T03:50:11;10.17;;;6.00;;
15946;SDS011;8072;52.554;7.966;2023-08-31T03:52:37;11.77;;;6.00;;
15946;SDS011;8072;52.554;7.966;2023-08-31T03:55:03;8.63;;;6.03;;
15946;SDS011;8072;52.554;7.966;2023-08-31T03:57:29;9.57;;;6.33;;
15946;SDS011;8072;52.554;7.966;2023-08-31T03:59:55;12.73;;;6.47;;
15946;SDS011;8072;52.554;7.966;2023-08-31T04:02:21;9.93;;;6.13;;
15946;SDS011;8072;52.554;7.966;2023-08-31T04:04:48;8.23;;;6.07;;
15946;SDS011;8072;52.554;7.966;2023-08-31T04:07:14;9.20;;;5.60;;
15946;SDS011;8072;52.554;7.966;2023-08-31T04:09:39;11.53;;;6.30;;
15946;SDS011;8072;52.554;7.966;2023-08-31T04:12:05;11.17;;;6.30;;
15946;SDS011;8072;52.554;7.966;2023-08-31T04:14:31;9.63;;;6.53;;
15946;SDS011;8072;52.554;7.966;2023-08-31T04:16:57;10.80;;;6.03;;
15946;SDS011;8072;52.554;7.966;2023-08-31T04:19:24;11.20;;;6.13;;
15946;SDS011;8072;52.554;7.966;2023-08-31T04:21:49;10.23;;;5.57;;
15946;SDS011;8072;52.554;7.966;2023-08-31T04:24:15;9.87;;;6.40;;
15946;SDS011;8072;52.554;7.966;2023-08-31T04:26:42;10.63;;;6.07;;
15946;SDS011;8072;52.554;7.966;2023-08-31T04:29:09;10.17;;;6.37;;
15946;SDS011;8072;52.554;7.966;2023-08-31T04:31:35;10.60;;;6.87;;
15946;SDS011;8072;52.554;7.966;2023-08-31T04:34:01;9.43;;;6.07;;
15946;SDS011;8072;52.554;7.966;2023-08-31T04:36:27;10.70;;;7.03;;
15946;SDS011;8072;52.554;7.966;2023-08-31T04:38:54;9.50;;;6.30;;
15946;SDS011;8072;52.554;7.966;2023-08-31T04:41:21;9.03;;;6.27;;
15946;SDS011;8072;52.554;7.966;2023-08-31T04:43:47;10.20;;;6.37;;
15946;SDS011;8072;52.554;7.966;2023-08-31T04:46:13;11.73;;;7.00;;
15946;SDS011;8072;52.554;7.966;2023-08-31T04:48:39;11.20;;;7.00;;
15946;SDS011;8072;52.554;7.966;2023-08-31T04:51:05;12.00;;;6.53;;
15946;SDS011;8072;52.554;7.966;2023-08-31T04:53:31;10.57;;;6.30;;
15946;SDS011;8072;52.554;7.966;2023-08-31T04:55:57;12.53;;;7.13;;
15946;SDS011;8072;52.554;7.966;2023-08-31T04:58:23;9.97;;;7.03;;
15946;SDS011;8072;52.554;7.966;2023-08-31T05:00:48;13.23;;;7.60;;
15946;SDS011;8072;52.554;7.966;2023-08-31T05:03:15;11.40;;;7.33;;
15946;SDS011;8072;52.554;7.966;2023-08-31T05:05:41;13.97;;;7.57;;
15946;SDS011;8072;52.554;7.966;2023-08-31T05:08:09;13.40;;;8.20;;
15946;SDS011;8072;52.554;7.966;2023-08-31T05:10:36;11.27;;;7.40;;
15946;SDS011;8072;52.554;7.966;2023-08-31T05:13:02;14.73;;;8.80;;
15946;SDS011;8072;52.554;7.966;2023-08-31T05:15:29;16.57;;;9.33;;
15946;SDS011;8072;52.554;7.966;2023-08-31T05:17:55;13.03;;;9.13;;
15946;SDS011;8072;52.554;7.966;2023-08-31T05:20:26;14.47;;;8.77;;
15946;SDS011;8072;52.554;7.966;2023-08-31T05:22:52;16.73;;;8.70;;
15946;SDS011;8072;52.554;7.966;2023-08-31T05:25:19;13.83;;;9.33;;
15946;SDS011;8072;52.554;7.966;2023-08-31T05:27:45;15.47;;;9.10;;
15946;SDS011;8072;52.554;7.966;2023-08-31T05:30:12;13.30;;;9.03;;
15946;SDS011;8072;52.554;7.966;2023-08-31T05:32:37;14.73;;;9.53;;
15946;SDS011;8072;52.554;7.966;2023-08-31T05:35:03;14.63;;;10.03;;
15946;SDS011;8072;52.554;7.966;2023-08-31T05:37:33;15.07;;;10.20;;
15946;SDS011;8072;52.554;7.966;2023-08-31T05:40:01;13.97;;;9.93;;
15946;SDS011;8072;52.554;7.966;2023-08-31T05:42:31;17.67;;;11.70;;
15946;SDS011;8072;52.554;7.966;2023-08-31T05:44:57;17.63;;;10.97;;
15946;SDS011;8072;52.554;7.966;2023-08-31T05:47:23;16.67;;;10.53;;
15946;SDS011;8072;52.554;7.966;2023-08-31T05:49:49;15.67;;;10.40;;
15946;SDS011;8072;52.554;7.966;2023-08-31T05:52:14;14.93;;;11.10;;
15946;SDS011;8072;52.554;7.966;2023-08-31T05:54:40;17.70;;;11.43;;
15946;SDS011;8072;52.554;7.966;2023-08-31T05:57:06;17.13;;;10.23;;
15946;SDS011;8072;52.554;7.966;2023-08-31T05:59:32;18.87;;;11.43;;
15946;SDS011;8072;52.554;7.966;2023-08-31T06:01:58;17.17;;;11.30;;
15946;SDS011;8072;52.554;7.966;2023-08-31T06:04:23;20.63;;;11.93;;
15946;SDS011;8072;52.554;7.966;2023-08-31T06:06:51;19.37;;;12.97;;
15946;SDS011;8072;52.554;7.966;2023-08-31T06:09:19;18.27;;;12.40;;
15946;SDS011;8072;52.554;7.966;2023-08-31T06:11:45;21.27;;;12.80;;
15946;SDS011;8072;52.554;7.966;2023-08-31T06:14:11;18.30;;;11.93;;
15946;SDS011;8072;52.554;7.966;2023-08-31T06:16:36;15.20;;;11.87;;
15946;SDS011;8072;52.554;7.966;2023-08-31T06:19:03;18.27;;;12.30;;
15946;SDS011;8072;52.554;7.966;2023-08-31T06:21:30;18.93;;;12.83;;
15946;SDS011;8072;52.554;7.966;2023-08-31T06:23:55;18.90;;;12.47;;
15946;SDS011;8072;52.554;7.966;2023-08-31T06:26:22;16.27;;;11.87;;
15946;SDS011;8072;52.554;7.966;2023-08-31T06:28:48;15.50;;;11.77;;
15946;SDS011;8072;52.554;7.966;2023-08-31T06:31:13;15.63;;;10.93;;
15946;SDS011;8072;52.554;7.966;2023-08-31T06:33:39;17.70;;;12.13;;
15946;SDS011;8072;52.554;7.966;2023-08-31T06:36:06;17.50;;;11.00;;
15946;SDS011;8072;52.554;7.966;2023-08-31T06:38:32;20.07;;;12.67;;
15946;SDS011;8072;52.554;7.966;2023-08-31T06:40:58;16.97;;;11.27;;
15946;SDS011;8072;52.554;7.966;2023-08-31T06:43:26;17.37;;;10.50;;
15946;SDS011;8072;52.554;7.966;2023-08-31T06:45:52;13.87;;;10.13;;
15946;SDS011;8072;52.554;7.966;2023-08-31T06:48:18;13.80;;;10.23;;
15946;SDS011;8072;52.554;7.966;2023-08-31T06:50:44;17.17;;;10.90;;
15946;SDS011;8072;52.554;7.966;2023-08-31T06:53:09;17.23;;;10.97;;
15946;SDS011;8072;52.554;7.966;2023-08-31T06:55:35;15.37;;;10.00;;
15946;SDS011;8072;52.554;7.966;2023-08-31T06:58:02;19.50;;;10.47;;
15946;SDS011;8072;52.554;7.966;2023-08-31T07:00:29;13.43;;;9.43;;
15946;SDS011;8072;52.554;7.966;2023-08-31T07:02:57;12.53;;;8.83;;
15946;SDS011;8072;52.554;7.966;2023-08-31T07:05:24;13.63;;;10.00;;
15946;SDS011;8072;52.554;7.966;2023-08-31T07:07:53;12.67;;;8.80;;
15946;SDS011;8072;52.554;7.966;2023-08-31T07:10:20;13.97;;;9.17;;
15946;SDS011;8072;52.554;7.966;2023-08-31T07:12:46;13.90;;;9.30;;
15946;SDS011;8072;52.554;7.966;2023-08-31T07:15:12;14.77;;;9.03;;
15946;SDS011;8072;52.554;7.966;2023-08-31T07:17:38;14.03;;;8.87;;
15946;SDS011;8072;52.554;7.966;2023-08-31T07:20:04;12.77;;;8.73;;
15946;SDS011;8072;52.554;7.966;2023-08-31T07:22:34;11.63;;;8.53;;
15946;SDS011;8072;52.554;7.966;2023-08-31T07:25:00;16.67;;;8.73;;
15946;SDS011;8072;52.554;7.966;2023-08-31T07:27:25;10.67;;;7.87;;
15946;SDS011;8072;52.554;7.966;2023-08-31T07:29:54;11.40;;;7.53;;
15946;SDS011;8072;52.554;7.966;2023-08-31T07:32:21;11.40;;;7.30;;
15946;SDS011;8072;52.554;7.966;2023-08-31T07:34:47;13.47;;;8.10;;
15946;SDS011;8072;52.554;7.966;2023-08-31T07:37:13;12.83;;;8.00;;
15946;SDS011;8072;52.554;7.966;2023-08-31T07:39:39;13.90;;;8.27;;
15946;SDS011;8072;52.554;7.966;2023-08-31T07:42:05;11.13;;;7.00;;
15946;SDS011;8072;52.554;7.966;2023-08-31T07:44:31;12.00;;;7.17;;
15946;SDS011;8072;52.554;7.966;2023-08-31T07:46:57;11.53;;;6.10;;
15946;SDS011;8072;52.554;7.966;2023-08-31T07:49:23;11.77;;;6.60;;
15946;SDS011;8072;52.554;7.966;2023-08-31T07:51:49;8.33;;;6.23;;
15946;SDS011;8072;52.554;7.966;2023-08-31T07:54:22;7.90;;;6.23;;
15946;SDS011;8072;52.554;7.966;2023-08-31T07:56:48;7.80;;;6.00;;
15946;SDS011;8072;52.554;7.966;2023-08-31T07:59:14;9.13;;;6.43;;
15946;SDS011;8072;52.554;7.966;2023-08-31T08:01:41;8.40;;;6.20;;
15946;SDS011;8072;52.554;7.966;2023-08-31T08:04:07;9.10;;;5.70;;
15946;SDS011;8072;52.554;7.966;2023-08-31T08:06:32;6.10;;;5.23;;
15946;SDS011;8072;52.554;7.966;2023-08-31T08:08:58;9.57;;;5.80;;
15946;SDS011;8072;52.554;7.966;2023-08-31T08:11:24;7.90;;;5.07;;
15946;SDS011;8072;52.554;7.966;2023-08-31T08:13:50;7.60;;;4.93;;
15946;SDS011;8072;52.554;7.966;2023-08-31T08:16:16;9.97;;;5.17;;
15946;SDS011;8072;52.554;7.966;2023-08-31T08:18:42;6.67;;;5.50;;
15946;SDS011;8072;52.554;7.966;2023-08-31T08:21:07;7.27;;;4.83;;
15946;SDS011;8072;52.554;7.966;2023-08-31T08:23:33;9.07;;;5.00;;
15946;SDS011;8072;52.554;7.966;2023-08-31T08:25:59;6.87;;;4.50;;
15946;SDS011;8072;52.554;7.966;2023-08-31T08:28:26;6.87;;;5.17;;
15946;SDS011;8072;52.554;7.966;2023-08-31T08:30:53;7.10;;;4.93;;
15946;SDS011;8072;52.554;7.966;2023-08-31T08:33:19;6.73;;;4.63;;
15946;SDS011;8072;52.554;7.966;2023-08-31T08:35:44;9.77;;;4.93;;
15946;SDS011;8072;52.554;7.966;2023-08-31T08:38:11;7.97;;;5.03;;
15946;SDS011;8072;52.554;7.966;2023-08-31T08:40:37;8.27;;;4.90;;
15946;SDS011;8072;52.554;7.966;2023-08-31T08:43:05;6.47;;;4.73;;
15946;SDS011;8072;52.554;7.966;2023-08-31T08:45:37;8.07;;;5.00;;
15946;SDS011;8072;52.554;7.966;2023-08-31T08:48:05;9.17;;;4.27;;
15946;SDS011;8072;52.554;7.966;2023-08-31T08:50:32;7.53;;;4.57;;
15946;SDS011;8072;52.554;7.966;2023-08-31T08:53:05;6.57;;;4.93;;
15946;SDS011;8072;52.554;7.966;2023-08-31T08:55:32;7.77;;;5.03;;
15946;SDS011;8072;52.554;7.966;2023-08-31T08:57:58;9.37;;;4.10;;
15946;SDS011;8072;52.554;7.966;2023-08-31T09:00:29;6.57;;;4.23;;
15946;SDS011;8072;52.554;7.966;2023-08-31T09:02:59;4.53;;;3.23;;
15946;SDS011;8072;52.554;7.966;2023-08-31T09:05:32;13.87;;;4.50;;
15946;SDS011;8072;52.554;7.966;2023-08-31T09:08:05;8.43;;;4.10;;
15946;SDS011;8072;52.554;7.966;2023-08-31T09:10:35;7.77;;;3.30;;
15946;SDS011;8072;52.554;7.966;2023-08-31T09:13:09;6.30;;;4.30;;
15946;SDS011;8072;52.554;7.966;2023-08-31T09:15:36;5.67;;;3.60;;
15946;SDS011;8072;52.554;7.966;2023-08-31T09:18:04;6.57;;;4.03;;
15946;SDS011;8072;52.554;7.966;2023-08-31T09:20:30;6.93;;;4.23;;
15946;SDS011;8072;52.554;7.966;2023-08-31T09:22:56;7.13;;;4.00;;
15946;SDS011;8072;52.554;7.966;2023-08-31T09:25:22;7.10;;;4.13;;
15946;SDS011;8072;52.554;7.966;2023-08-31T09:27:48;3.97;;;3.57;;
15946;SDS011;8072;52.554;7.966;2023-08-31T09:30:14;7.20;;;3.10;;
15946;SDS011;8072;52.554;7.966;2023-08-31T09:32:40;4.87;;;2.90;;
15946;SDS011;8072;52.554;7.966;2023-08-31T09:35:09;5.17;;;2.80;;
15946;SDS011;8072;52.554;7.966;2023-08-31T09:37:35;3.60;;;2.70;;
15946;SDS011;8072;52.554;7.966;2023-08-31T09:40:02;6.90;;;3.10;;
15946;SDS011;8072;52.554;7.966;2023-08-31T09:42:37;10.70;;;3.20;;
15946;SDS011;8072;52.554;7.966;2023-08-31T09:45:03;6.10;;;3.97;;
15946;SDS011;8072;52.554;7.966;2023-08-31T09:47:30;8.53;;;3.17;;
15946;SDS011;8072;52.554;7.966;2023-08-31T09:49:57;4.43;;;2.97;;
15946;SDS011;8072;52.554;7.966;2023-08-31T09:52:24;5.23;;;2.90;;
15946;SDS011;8072;52.554;7.966;2023-08-31T09:54:51;5.70;;;3.57;;
15946;SDS011;8072;52.554;7.966;2023-08-31T09:57:19;4.93;;;2.50;;
15946;SDS011;8072;52.554;7.966;2023-08-31T09:59:47;6.33;;;2.73;;
15946;SDS011;8072;52.554;7.966;2023-08-31T10:02:13;5.77;;;2.47;;
15946;SDS011;8072;52.554;7.966;2023-08-31T10:04:42;4.63;;;2.93;;
15946;SDS011;8072;52.554;7.966;2023-08-31T10:07:08;7.10;;;2.33;;
15946;SDS011;8072;52.554;7.966;2023-08-31T10:09:40;4.63;;;1.90;;
15946;SDS011;8072;52.554;7.966;2023-08-31T10:12:06;4.53;;;2.20;;
15946;SDS011;8072;52.554;7.966;2023-08-31T10:14:33;3.70;;;2.40;;
15946;SDS011;8072;52.554;7.966;2023-08-31T10:17:00;4.17;;;2.07;;
15946;SDS011;8072;52.554;7.966;2023-08-31T10:19:29;3.60;;;2.23;;
15946;SDS011;8072;52.554;7.966;2023-08-31T10:21:54;2.90;;;2.00;;
15946;SDS011;8072;52.554;7.966;2023-08-31T10:25:10;2.30;;;1.73;;
15946;SDS011;8072;52.554;7.966;2023-08-31T10:27:29;3.87;;;2.20;;
15946;SDS011;8072;52.554;7.966;2023-08-31T10:33:43;5.10;;;1.80;;
15946;SDS011;8072;52.554;7.966;2023-08-31T10:35:52;2.53;;;1.37;;
15946;SDS011;8072;52.554;7.966;2023-08-31T10:43:38;2.73;;;1.50;;
15946;SDS011;8072;52.554;7.966;2023-08-31T10:46:16;3.33;;;1.53;;
15946;SDS011;8072;52.554;7.966;2023-08-31T10:48:49;8.83;;;1.70;;
15946;SDS011;8072;52.554;7.966;2023-08-31T10:51:21;2.83;;;1.57;;
15946;SDS011;8072;52.554;7.966;2023-08-31T10:53:51;1.90;;;1.30;;
15946;SDS011;8072;52.554;7.966;2023-08-31T10:56:18;3.10;;;1.33;;
15946;SDS011;8072;52.554;7.966;2023-08-31T10:58:59;2.23;;;1.43;;
15946;SDS011;8072;52.554;7.966;2023-08-31T11:04:26;2.23;;;1.30;;
15946;SDS011;8072;52.554;7.966;2023-08-31T11:09:41;3.47;;;1.00;;
15946;SDS011;8072;52.554;7.966;2023-08-31T11:12:09;1.90;;;1.17;;
15946;SDS011;8072;52.554;7.966;2023-08-31T11:14:36;1.53;;;0.70;;
15946;SDS011;8072;52.554;7.966;2023-08-31T11:17:02;2.10;;;0.90;;
15946;SDS011;8072;52.554;7.966;2023-08-31T11:19:30;2.43;;;1.00;;
15946;SDS011;8072;52.554;7.966;2023-08-31T11:21:56;3.07;;;1.23;;
15946;SDS011;8072;52.554;7.966;2023-08-31T11:24:23;2.83;;;0.83;;
15946;SDS011;8072;52.554;7.966;2023-08-31T11:26:53;2.33;;;1.00;;
15946;SDS011;8072;52.554;7.966;2023-08-31T11:29:20;3.17;;;1.13;;
15946;SDS011;8072;52.554;7.966;2023-08-31T11:31:45;2.07;;;1.30;;
15946;SDS011;8072;52.554;7.966;2023-08-31T11:34:15;1.90;;;0.80;;
15946;SDS011;8072;52.554;7.966;2023-08-31T11:36:42;3.17;;;1.40;;
15946;SDS011;8072;52.554;7.966;2023-08-31T11:39:09;1.53;;;1.30;;
15946;SDS011;8072;52.554;7.966;2023-08-31T11:41:36;3.30;;;1.50;;
15946;SDS011;8072;52.554;7.966;2023-08-31T11:44:06;2.10;;;1.37;;
15946;SDS011;8072;52.554;7.966;2023-08-31T11:46:34;3.73;;;1.20;;
15946;SDS011;8072;52.554;7.966;2023-08-31T11:49:03;3.63;;;1.70;;
15946;SDS011;8072;52.554;7.966;2023-08-31T11:51:29;2.73;;;1.53;;
15946;SDS011;8072;52.554;7.966;2023-08-31T11:53:57;3.93;;;1.40;;
15946;SDS011;8072;52.554;7.966;2023-08-31T11:56:24;3.30;;;1.30;;
15946;SDS011;8072;52.554;7.966;2023-08-31T11:58:51;3.20;;;1.40;;
15946;SDS011;8072;52.554;7.966;2023-08-31T12:01:20;3.40;;;1.40;;
15946;SDS011;8072;52.554;7.966;2023-08-31T12:03:46;9.43;;;2.30;;
15946;SDS011;8072;52.554;7.966;2023-08-31T12:06:15;4.77;;;1.53;;
15946;SDS011;8072;52.554;7.966;2023-08-31T12:08:42;1.77;;;1.30;;
15946;SDS011;8072;52.554;7.966;2023-08-31T12:11:08;3.03;;;1.30;;
15946;SDS011;8072;52.554;7.966;2023-08-31T12:13:34;4.03;;;1.53;;
15946;SDS011;8072;52.554;7.966;2023-08-31T12:16:00;3.10;;;1.20;;
15946;SDS011;8072;52.554;7.966;2023-08-31T12:18:29;4.70;;;1.37;;
15946;SDS011;8072;52.554;7.966;2023-08-31T12:20:58;2.33;;;1.33;;
15946;SDS011;8072;52.554;7.966;2023-08-31T12:23:24;2.37;;;1.47;;
15946;SDS011;8072;52.554;7.966;2023-08-31T12:25:54;2.43;;;1.37;;
15946;SDS011;8072;52.554;7.966;2023-08-31T12:28:21;5.97;;;1.40;;
15946;SDS011;8072;52.554;7.966;2023-08-31T12:30:52;1.47;;;1.20;;
15946;SDS011;8072;52.554;7.966;2023-08-31T12:33:19;7.47;;;1.30;;
15946;SDS011;8072;52.554;7.966;2023-08-31T12:35:46;4.53;;;1.20;;
15946;SDS011;8072;52.554;7.966;2023-08-31T12:38:12;3.20;;;1.10;;
15946;SDS011;8072;52.554;7.966;2023-08-31T12:40:39;1.60;;;0.60;;
15946;SDS011;8072;52.554;7.966;2023-08-31T12:43:05;1.40;;;0.80;;
15946;SDS011;8072;52.554;7.966;2023-08-31T12:45:31;3.50;;;0.90;;
15946;SDS011;8072;52.554;7.966;2023-08-31T12:47:58;3.77;;;1.63;;
15946;SDS011;8072;52.554;7.966;2023-08-31T12:50:25;2.33;;;0.93;;
15946;SDS011;8072;52.554;7.966;2023-08-31T12:52:50;2.57;;;0.70;;
15946;SDS011;8072;52.554;7.966;2023-08-31T12:55:16;3.37;;;0.97;;
15946;SDS011;8072;52.554;7.966;2023-08-31T12:57:42;2.77;;;0.87;;
15946;SDS011;8072;52.554;7.966;2023-08-31T13:00:08;5.47;;;1.47;;
15946;SDS011;8072;52.554;7.966;2023-08-31T13:02:39;2.77;;;1.03;;
15946;SDS011;8072;52.554;7.966;2023-08-31T13:05:06;1.73;;;0.97;;
15946;SDS011;8072;52.554;7.966;2023-08-31T13:07:36;2.27;;;1.00;;
15946;SDS011;8072;52.554;7.966;2023-08-31T13:10:04;2.97;;;1.00;;
15946;SDS011;8072;52.554;7.966;2023-08-31T13:12:30;2.50;;;0.83;;
15946;SDS011;8072;52.554;7.966;2023-08-31T13:14:57;6.40;;;1.17;;
15946;SDS011;8072;52.554;7.966;2023-08-31T13:17:23;2.20;;;0.83;;
15946;SDS011;8072;52.554;7.966;2023-08-31T13:19:55;3.23;;;0.70;;
15946;SDS011;8072;52.554;7.966;2023-08-31T13:22:22;2.50;;;0.80;;
15946;SDS011;8072;52.554;7.966;2023-08-31T13:24:49;3.57;;;0.70;;
15946;SDS011;8072;52.554;7.966;2023-08-31T13:27:15;7.47;;;1.30;;
15946;SDS011;8072;52.554;7.966;2023-08-31T13:29:42;3.83;;;1.20;;
15946;SDS011;8072;52.554;7.966;2023-08-31T13:32:09;4.77;;;1.30;;
15946;SDS011;8072;52.554;7.966;2023-08-31T13:34:36;2.13;;;1.00;;
15946;SDS011;8072;52.554;7.966;2023-08-31T13:37:02;3.10;;;0.90;;
15946;SDS011;8072;52.554;7.966;2023-08-31T13:39:34;2.37;;;1.20;;
15946;SDS011;8072;52.554;7.966;2023-08-31T13:42:07;5.10;;;1.60;;
15946;SDS011;8072;52.554;7.966;2023-08-31T13:44:33;5.33;;;1.30;;
15946;SDS011;8072;52.554;7.966;2023-08-31T13:47:00;5.87;;;1.50;;
15946;SDS011;8072;52.554;7.966;2023-08-31T13:49:28;2.77;;;1.50;;
15946;SDS011;8072;52.554;7.966;2023-08-31T13:51:54;3.37;;;1.50;;
15946;SDS011;8072;52.554;7.966;2023-08-31T13:54:21;3.77;;;1.50;;
15946;SDS011;8072;52.554;7.966;2023-08-31T13:56:48;2.73;;;1.80;;
15946;SDS011;8072;52.554;7.966;2023-08-31T13:59:15;5.10;;;1.80;;
15946;SDS011;8072;52.554;7.966;2023-08-31T14:01:41;6.97;;;1.50;;
15946;SDS011;8072;52.554;7.966;2023-08-31T14:04:06;4.10;;;1.80;;
15946;SDS011;8072;52.554;7.966;2023-08-31T14:06:32;4.93;;;2.20;;
15946;SDS011;8072;52.554;7.966;2023-08-31T14:08:58;6.33;;;2.60;;
15946;SDS011;8072;52.554;7.966;2023-08-31T14:11:24;4.47;;;1.87;;
15946;SDS011;8072;52.554;7.966;2023-08-31T14:13:50;6.23;;;1.60;;
15946;SDS011;8072;52.554;7.966;2023-08-31T14:16:17;4.50;;;1.70;;
15946;SDS011;8072;52.554;7.966;2023-08-31T14:18:43;4.13;;;2.00;;
15946;SDS011;8072;52.554;7.966;2023-08-31T14:21:14;3.13;;;1.20;;
15946;SDS011;8072;52.554;7.966;2023-08-31T14:23:42;3.47;;;1.10;;
15946;SDS011;8072;52.554;7.966;2023-08-31T14:26:07;3.53;;;1.00;;
15946;SDS011;8072;52.554;7.966;2023-08-31T14:28:36;2.10;;;0.73;;
15946;SDS011;8072;52.554;7.966;2023-08-31T14:31:05;0.97;;;0.60;;
15946;SDS011;8072;52.554;7.966;2023-08-31T14:33:32;2.13;;;0.90;;
15946;SDS011;8072;52.554;7.966;2023-08-31T14:35:58;1.60;;;0.70;;
15946;SDS011;8072;52.554;7.966;2023-08-31T14:38:24;2.40;;;1.30;;
15946;SDS011;8072;52.554;7.966;2023-08-31T14:40:51;0.83;;;0.80;;
15946;SDS011;8072;52.554;7.966;2023-08-31T14:43:16;1.67;;;0.70;;
15946;SDS011;8072;52.554;7.966;2023-08-31T14:45:42;4.00;;;0.60;;
15946;SDS011;8072;52.554;7.966;2023-08-31T14:48:08;1.43;;;0.70;;
15946;SDS011;8072;52.554;7.966;2023-08-31T14:50:34;1.87;;;0.80;;
15946;SDS011;8072;52.554;7.966;2023-08-31T14:53:00;2.43;;;0.80;;
15946;SDS011;8072;52.554;7.966;2023-08-31T14:55:26;2.40;;;0.70;;
15946;SDS011;8072;52.554;7.966;2023-08-31T14:57:51;4.37;;;1.00;;
15946;SDS011;8072;52.554;7.966;2023-08-31T15:00:18;2.40;;;0.73;;
15946;SDS011;8072;52.554;7.966;2023-08-31T15:02:46;3.07;;;1.10;;
15946;SDS011;8072;52.554;7.966;2023-08-31T15:05:12;2.83;;;1.00;;
15946;SDS011;8072;52.554;7.966;2023-08-31T15:07:38;4.63;;;0.80;;
15946;SDS011;8072;52.554;7.966;2023-08-31T15:10:04;1.43;;;0.80;;
15946;SDS011;8072;52.554;7.966;2023-08-31T15:12:31;2.07;;;0.90;;
15946;SDS011;8072;52.554;7.966;2023-08-31T15:14:59;3.23;;;0.90;;
15946;SDS011;8072;52.554;7.966;2023-08-31T15:17:25;3.93;;;0.90;;